sensor_id;sensor_type;location;lat;lon;timestamp;pressure;altitude;pressure_sealevel;temperature;humidity
18813;BME280;9534;51.140;6.296;2023-04-20T00:03:58;101011.53;;;7.07;100.00
18813;BME280;9534;51.140;6.296;2023-04-20T00:08:01;101013.13;;;6.93;100.00
18813;BME280;9534;51.140;6.296;2023-04-20T00:12:05;100997.44;;;7.03;100.00
18813;BME280;9534;51.140;6.296;2023-04-20T00:16:09;100996.41;;;7.04;100.00
18813;BME280;9534;51.140;6.296;2023-04-20T00:20:12;100988.78;;;7.00;100.00
18813;BME280;9534;51.140;6.296;2023-04-20T00:24:15;100987.19;;;6.83;100.00
18813;BME280;9534;51.140;6.296;2023-04-20T00:28:18;100981.22;;;6.87;100.00
18813;BME280;9534;51.140;6.296;2023-04-20T00:32:23;100976.06;;;6.92;100.00
18813;BME280;9534;51.140;6.296;2023-04-20T00:36:26;100971.53;;;6.85;100.00
18813;BME280;9534;51.140;6.296;2023-04-20T00:40:29;100970.06;;;6.74;100.00
18813;BME280;9534;51.140;6.296;2023-04-20T00:44:32;100956.16;;;6.69;100.00
18813;BME280;9534;51.140;6.296;2023-04-20T00:48:36;100953.81;;;6.58;100.00
18813;BME280;9534;51.140;6.296;2023-04-20T00:52:39;100942.97;;;6.50;100.00
18813;BME280;9534;51.140;6.296;2023-04-20T00:56:42;100939.03;;;6.53;100.00
18813;BME280;9534;51.140;6.296;2023-04-20T01:00:45;100931.44;;;6.48;100.00
18813;BME280;9534;51.140;6.296;2023-04-20T01:04:52;100920.97;;;6.29;100.00
18813;BME280;9534;51.140;6.296;2023-04-20T01:08:56;100910.31;;;6.28;100.00
18813;BME280;9534;51.140;6.296;2023-04-20T01:12:59;100902.97;;;6.28;100.00
18813;BME280;9534;51.140;6.296;2023-04-20T01:17:02;100899.25;;;6.29;100.00
18813;BME280;9534;51.140;6.296;2023-04-20T01:21:08;100896.13;;;6.40;100.00
18813;BME280;9534;51.140;6.296;2023-04-20T01:25:12;100901.91;;;6.37;100.00
18813;BME280;9534;51.140;6.296;2023-04-20T01:29:15;100888.69;;;6.34;100.00
18813;BME280;9534;51.140;6.296;2023-04-20T01:33:18;100882.63;;;6.24;100.00
18813;BME280;9534;51.140;6.296;2023-04-20T01:37:24;100887.09;;;6.10;100.00
18813;BME280;9534;51.140;6.296;2023-04-20T01:41:29;100880.19;;;5.99;100.00
18813;BME280;9534;51.140;6.296;2023-04-20T01:45:32;100876.31;;;5.94;100.00
18813;BME280;9534;51.140;6.296;2023-04-20T01:49:35;100865.44;;;5.86;100.00
18813;BME280;9534;51.140;6.296;2023-04-20T01:53:38;100865.81;;;5.75;100.00
18813;BME280;9534;51.140;6.296;2023-04-20T01:57:42;100859.38;;;5.68;100.00
18813;BME280;9534;51.140;6.296;2023-04-20T02:01:46;100856.19;;;6.11;100.00
18813;BME280;9534;51.140;6.296;2023-04-20T02:05:49;100851.25;;;6.14;100.00
18813;BME280;9534;51.140;6.296;2023-04-20T02:09:52;100855.13;;;6.19;100.00
18813;BME280;9534;51.140;6.296;2023-04-20T02:13:57;100855.78;;;6.21;100.00
18813;BME280;9534;51.140;6.296;2023-04-20T02:17:59;100858.34;;;6.53;100.00
18813;BME280;9534;51.140;6.296;2023-04-20T02:22:04;100847.78;;;6.58;100.00
18813;BME280;9534;51.140;6.296;2023-04-20T02:26:07;100837.88;;;6.65;100.00
18813;BME280;9534;51.140;6.296;2023-04-20T02:30:15;100822.84;;;6.77;100.00
18813;BME280;9534;51.140;6.296;2023-04-20T02:34:18;100817.88;;;6.81;100.00
18813;BME280;9534;51.140;6.296;2023-04-20T02:38:21;100823.91;;;6.91;100.00
18813;BME280;9534;51.140;6.296;2023-04-20T02:42:24;100819.03;;;6.86;100.00
18813;BME280;9534;51.140;6.296;2023-04-20T02:46:30;100803.38;;;6.88;100.00
18813;BME280;9534;51.140;6.296;2023-04-20T02:50:33;100788.91;;;6.88;100.00
18813;BME280;9534;51.140;6.296;2023-04-20T02:55:05;100782.34;;;6.82;100.00
18813;BME280;9534;51.140;6.296;2023-04-20T02:59:08;100791.63;;;6.88;100.00
18813;BME280;9534;51.140;6.296;2023-04-20T03:03:17;100780.59;;;6.89;100.00
18813;BME280;9534;51.140;6.296;2023-04-20T03:07:22;100768.91;;;6.81;100.00
18813;BME280;9534;51.140;6.296;2023-04-20T03:11:26;100773.53;;;6.80;100.00
18813;BME280;9534;51.140;6.296;2023-04-20T03:15:30;100778.59;;;6.83;100.00
18813;BME280;9534;51.140;6.296;2023-04-20T03:19:46;100776.53;;;6.85;100.00
18813;BME280;9534;51.140;6.296;2023-04-20T03:23:49;100770.34;;;6.91;100.00
18813;BME280;9534;51.140;6.296;2023-04-20T03:27:52;100761.56;;;6.89;100.00
18813;BME280;9534;51.140;6.296;2023-04-20T03:31:56;100757.13;;;6.88;100.00
18813;BME280;9534;51.140;6.296;2023-04-20T03:36:00;100756.47;;;6.86;100.00
18813;BME280;9534;51.140;6.296;2023-04-20T03:40:04;100758.16;;;6.87;100.00
18813;BME280;9534;51.140;6.296;2023-04-20T03:44:07;100750.75;;;6.81;100.00
18813;BME280;9534;51.140;6.296;2023-04-20T03:48:10;100755.16;;;6.82;100.00
18813;BME280;9534;51.140;6.296;2023-04-20T03:52:15;100751.94;;;6.79;100.00
18813;BME280;9534;51.140;6.296;2023-04-20T03:56:18;100731.56;;;6.75;100.00
18813;BME280;9534;51.140;6.296;2023-04-20T04:00:22;100734.84;;;6.70;100.00
18813;BME280;9534;51.140;6.296;2023-04-20T04:04:33;100739.63;;;6.68;100.00
18813;BME280;9534;51.140;6.296;2023-04-20T04:08:38;100741.50;;;6.68;100.00
18813;BME280;9534;51.140;6.296;2023-04-20T04:12:41;100738.59;;;6.69;100.00
18813;BME280;9534;51.140;6.296;2023-04-20T04:16:44;100741.69;;;6.66;100.00
18813;BME280;9534;51.140;6.296;2023-04-20T04:20:48;100739.44;;;6.70;100.00
18813;BME280;9534;51.140;6.296;2023-04-20T04:24:52;100727.00;;;6.75;100.00
18813;BME280;9534;51.140;6.296;2023-04-20T04:28:55;100731.84;;;6.65;100.00
18813;BME280;9534;51.140;6.296;2023-04-20T04:32:59;100728.56;;;6.70;100.00
18813;BME280;9534;51.140;6.296;2023-04-20T04:37:08;100716.84;;;6.69;100.00
18813;BME280;9534;51.140;6.296;2023-04-20T04:41:22;100711.41;;;6.69;100.00
18813;BME280;9534;51.140;6.296;2023-04-20T04:45:29;100711.88;;;6.73;100.00
18813;BME280;9534;51.140;6.296;2023-04-20T04:49:32;100710.91;;;6.66;100.00
18813;BME280;9534;51.140;6.296;2023-04-20T04:53:36;100712.16;;;6.63;100.00
18813;BME280;9534;51.140;6.296;2023-04-20T04:57:40;100705.47;;;6.66;100.00
18813;BME280;9534;51.140;6.296;2023-04-20T05:01:43;100706.03;;;6.61;100.00
18813;BME280;9534;51.140;6.296;2023-04-20T05:05:46;100704.53;;;6.59;100.00
18813;BME280;9534;51.140;6.296;2023-04-20T05:09:49;100709.13;;;6.58;100.00
18813;BME280;9534;51.140;6.296;2023-04-20T05:13:54;100703.03;;;6.56;100.00
18813;BME280;9534;51.140;6.296;2023-04-20T05:17:57;100703.41;;;6.68;100.00
18813;BME280;9534;51.140;6.296;2023-04-20T05:22:00;100700.53;;;6.69;100.00
18813;BME280;9534;51.140;6.296;2023-04-20T05:26:04;100703.53;;;6.74;100.00
18813;BME280;9534;51.140;6.296;2023-04-20T05:30:09;100705.34;;;6.82;100.00
18813;BME280;9534;51.140;6.296;2023-04-20T05:34:22;100699.72;;;6.83;100.00
18813;BME280;9534;51.140;6.296;2023-04-20T05:38:25;100697.94;;;6.90;100.00
18813;BME280;9534;51.140;6.296;2023-04-20T05:42:28;100704.88;;;6.93;100.00
18813;BME280;9534;51.140;6.296;2023-04-20T05:46:32;100709.38;;;7.00;100.00
18813;BME280;9534;51.140;6.296;2023-04-20T05:50:35;100713.72;;;7.09;100.00
18813;BME280;9534;51.140;6.296;2023-04-20T05:54:38;100707.78;;;6.91;100.00
18813;BME280;9534;51.140;6.296;2023-04-20T05:58:41;100711.44;;;6.98;100.00
18813;BME280;9534;51.140;6.296;2023-04-20T06:02:46;100699.94;;;7.11;100.00
18813;BME280;9534;51.140;6.296;2023-04-20T06:06:49;100701.72;;;7.18;100.00
18813;BME280;9534;51.140;6.296;2023-04-20T06:10:52;100702.13;;;7.30;100.00
18813;BME280;9534;51.140;6.296;2023-04-20T06:14:56;100702.84;;;7.38;100.00
18813;BME280;9534;51.140;6.296;2023-04-20T06:19:00;100693.00;;;7.23;100.00
18813;BME280;9534;51.140;6.296;2023-04-20T06:23:04;100683.91;;;7.16;100.00
18813;BME280;9534;51.140;6.296;2023-04-20T06:27:07;100680.88;;;7.25;100.00
18813;BME280;9534;51.140;6.296;2023-04-20T06:31:10;100678.00;;;7.27;100.00
18813;BME280;9534;51.140;6.296;2023-04-20T06:35:14;100671.38;;;7.64;100.00
18813;BME280;9534;51.140;6.296;2023-04-20T06:39:17;100667.53;;;7.94;100.00
18813;BME280;9534;51.140;6.296;2023-04-20T06:43:21;100673.56;;;7.90;100.00
18813;BME280;9534;51.140;6.296;2023-04-20T06:47:23;100673.25;;;8.20;100.00
18813;BME280;9534;51.140;6.296;2023-04-20T06:51:33;100678.66;;;8.14;100.00
18813;BME280;9534;51.140;6.296;2023-04-20T06:55:36;100677.28;;;8.03;100.00
18813;BME280;9534;51.140;6.296;2023-04-20T06:59:39;100673.16;;;8.07;100.00
18813;BME280;9534;51.140;6.296;2023-04-20T07:03:42;100664.69;;;8.02;100.00
18813;BME280;9534;51.140;6.296;2023-04-20T07:07:49;100672.97;;;8.30;100.00
18813;BME280;9534;51.140;6.296;2023-04-20T07:11:52;100660.84;;;7.97;100.00
18813;BME280;9534;51.140;6.296;2023-04-20T07:15:56;100664.09;;;8.07;100.00
18813;BME280;9534;51.140;6.296;2023-04-20T07:19:59;100668.34;;;8.09;100.00
18813;BME280;9534;51.140;6.296;2023-04-20T07:24:10;100664.22;;;7.99;100.00
18813;BME280;9534;51.140;6.296;2023-04-20T07:28:13;100658.63;;;7.86;100.00
18813;BME280;9534;51.140;6.296;2023-04-20T07:32:16;100665.84;;;7.93;100.00
18813;BME280;9534;51.140;6.296;2023-04-20T07:36:19;100659.22;;;7.81;100.00
18813;BME280;9534;51.140;6.296;2023-04-20T07:40:24;100670.03;;;7.75;100.00
18813;BME280;9534;51.140;6.296;2023-04-20T07:44:27;100662.16;;;7.65;100.00
18813;BME280;9534;51.140;6.296;2023-04-20T07:48:32;100665.63;;;7.74;100.00
18813;BME280;9534;51.140;6.296;2023-04-20T07:52:35;100668.09;;;7.69;100.00
18813;BME280;9534;51.140;6.296;2023-04-20T07:56:39;100668.09;;;7.69;100.00
18813;BME280;9534;51.140;6.296;2023-04-20T08:00:42;100672.13;;;7.94;100.00
18813;BME280;9534;51.140;6.296;2023-04-20T08:04:47;100669.31;;;8.23;100.00
18813;BME280;9534;51.140;6.296;2023-04-20T08:08:50;100665.88;;;8.35;100.00
18813;BME280;9534;51.140;6.296;2023-04-20T08:12:55;100665.13;;;8.06;100.00
18813;BME280;9534;51.140;6.296;2023-04-20T08:16:58;100670.47;;;8.14;100.00
18813;BME280;9534;51.140;6.296;2023-04-20T08:21:01;100654.94;;;7.93;100.00
18813;BME280;9534;51.140;6.296;2023-04-20T08:25:04;100660.69;;;7.84;100.00
18813;BME280;9534;51.140;6.296;2023-04-20T08:29:09;100671.09;;;7.74;100.00
18813;BME280;9534;51.140;6.296;2023-04-20T08:33:12;100659.00;;;7.62;100.00
18813;BME280;9534;51.140;6.296;2023-04-20T08:37:15;100667.44;;;7.88;100.00
18813;BME280;9534;51.140;6.296;2023-04-20T08:41:18;100661.63;;;7.91;100.00
18813;BME280;9534;51.140;6.296;2023-04-20T08:45:23;100656.94;;;7.85;100.00
18813;BME280;9534;51.140;6.296;2023-04-20T08:49:26;100651.09;;;7.88;100.00
18813;BME280;9534;51.140;6.296;2023-04-20T08:53:30;100646.25;;;8.25;100.00
18813;BME280;9534;51.140;6.296;2023-04-20T08:57:33;100648.41;;;8.09;100.00
18813;BME280;9534;51.140;6.296;2023-04-20T09:01:37;100651.13;;;8.09;100.00
18813;BME280;9534;51.140;6.296;2023-04-20T09:05:43;100654.28;;;8.27;100.00
18813;BME280;9534;51.140;6.296;2023-04-20T09:09:53;100641.34;;;8.35;100.00
18813;BME280;9534;51.140;6.296;2023-04-20T09:13:57;100650.78;;;8.33;100.00
18813;BME280;9534;51.140;6.296;2023-04-20T09:18:11;100643.09;;;8.22;100.00
18813;BME280;9534;51.140;6.296;2023-04-20T09:22:15;100651.81;;;8.53;100.00
18813;BME280;9534;51.140;6.296;2023-04-20T09:26:18;100643.59;;;8.11;100.00
18813;BME280;9534;51.140;6.296;2023-04-20T09:30:21;100638.38;;;8.30;100.00
18813;BME280;9534;51.140;6.296;2023-04-20T09:34:26;100645.84;;;8.43;100.00
18813;BME280;9534;51.140;6.296;2023-04-20T09:38:28;100632.53;;;8.60;100.00
18813;BME280;9534;51.140;6.296;2023-04-20T09:42:32;100635.47;;;8.32;100.00
18813;BME280;9534;51.140;6.296;2023-04-20T09:46:39;100630.91;;;8.39;100.00
18813;BME280;9534;51.140;6.296;2023-04-20T09:50:43;100630.69;;;8.40;100.00
18813;BME280;9534;51.140;6.296;2023-04-20T09:54:51;100622.72;;;8.39;100.00
18813;BME280;9534;51.140;6.296;2023-04-20T09:58:55;100621.28;;;8.01;100.00
18813;BME280;9534;51.140;6.296;2023-04-20T10:02:58;100627.22;;;7.90;100.00
18813;BME280;9534;51.140;6.296;2023-04-20T10:07:03;100616.59;;;7.74;100.00
18813;BME280;9534;51.140;6.296;2023-04-20T10:11:07;100634.22;;;7.42;100.00
18813;BME280;9534;51.140;6.296;2023-04-20T10:15:10;100640.25;;;7.09;100.00
18813;BME280;9534;51.140;6.296;2023-04-20T10:19:13;100637.34;;;7.25;100.00
18813;BME280;9534;51.140;6.296;2023-04-20T10:23:17;100638.56;;;7.37;100.00
18813;BME280;9534;51.140;6.296;2023-04-20T10:27:21;100645.50;;;7.25;100.00
18813;BME280;9534;51.140;6.296;2023-04-20T10:31:33;100632.41;;;7.64;100.00
18813;BME280;9534;51.140;6.296;2023-04-20T10:35:40;100623.56;;;7.97;100.00
18813;BME280;9534;51.140;6.296;2023-04-20T10:39:47;100606.09;;;8.55;100.00
18813;BME280;9534;51.140;6.296;2023-04-20T10:43:50;100586.91;;;8.75;100.00
18813;BME280;9534;51.140;6.296;2023-04-20T10:47:54;100582.38;;;9.89;100.00
18813;BME280;9534;51.140;6.296;2023-04-20T10:51:57;100582.84;;;10.90;100.00
18813;BME280;9534;51.140;6.296;2023-04-20T10:56:01;100573.63;;;10.71;100.00
18813;BME280;9534;51.140;6.296;2023-04-20T11:00:12;100566.81;;;11.00;100.00
18813;BME280;9534;51.140;6.296;2023-04-20T11:04:17;100557.41;;;10.31;100.00
18813;BME280;9534;51.140;6.296;2023-04-20T11:08:20;100552.53;;;9.94;100.00
18813;BME280;9534;51.140;6.296;2023-04-20T11:12:24;100552.72;;;9.92;100.00
18813;BME280;9534;51.140;6.296;2023-04-20T11:16:27;100541.59;;;9.81;100.00
18813;BME280;9534;51.140;6.296;2023-04-20T11:20:50;100544.88;;;9.57;100.00
18813;BME280;9534;51.140;6.296;2023-04-20T11:25:01;100555.69;;;9.18;100.00
18813;BME280;9534;51.140;6.296;2023-04-20T11:29:07;100554.97;;;8.69;100.00
18813;BME280;9534;51.140;6.296;2023-04-20T11:33:10;100564.56;;;8.11;100.00
18813;BME280;9534;51.140;6.296;2023-04-20T11:37:14;100575.41;;;7.27;100.00
18813;BME280;9534;51.140;6.296;2023-04-20T11:41:18;100575.97;;;7.23;100.00
18813;BME280;9534;51.140;6.296;2023-04-20T11:45:23;100592.53;;;8.40;100.00
18813;BME280;9534;51.140;6.296;2023-04-20T11:49:27;100588.34;;;8.99;100.00
18813;BME280;9534;51.140;6.296;2023-04-20T11:53:30;100595.19;;;9.76;100.00
18813;BME280;9534;51.140;6.296;2023-04-20T11:57:33;100548.13;;;11.40;100.00
18813;BME280;9534;51.140;6.296;2023-04-20T12:01:38;100554.59;;;11.08;100.00
18813;BME280;9534;51.140;6.296;2023-04-20T12:05:41;100530.69;;;10.52;100.00
18813;BME280;9534;51.140;6.296;2023-04-20T12:09:44;100548.25;;;9.59;100.00
18813;BME280;9534;51.140;6.296;2023-04-20T12:13:47;100570.53;;;8.75;100.00
18813;BME280;9534;51.140;6.296;2023-04-20T12:17:52;100580.22;;;8.78;100.00
18813;BME280;9534;51.140;6.296;2023-04-20T12:21:55;100578.00;;;8.60;100.00
18813;BME280;9534;51.140;6.296;2023-04-20T12:25:58;100589.72;;;8.82;100.00
18813;BME280;9534;51.140;6.296;2023-04-20T12:30:01;100582.84;;;8.92;100.00
18813;BME280;9534;51.140;6.296;2023-04-20T12:34:06;100580.25;;;9.78;100.00
18813;BME280;9534;51.140;6.296;2023-04-20T12:38:09;100553.66;;;11.27;100.00
18813;BME280;9534;51.140;6.296;2023-04-20T12:42:15;100530.22;;;12.37;100.00
18813;BME280;9534;51.140;6.296;2023-04-20T12:46:18;100530.69;;;12.94;100.00
18813;BME280;9534;51.140;6.296;2023-04-20T12:50:23;100540.56;;;13.38;100.00
18813;BME280;9534;51.140;6.296;2023-04-20T12:54:26;100533.81;;;12.55;100.00
18813;BME280;9534;51.140;6.296;2023-04-20T12:58:28;100534.28;;;12.04;100.00
18813;BME280;9534;51.140;6.296;2023-04-20T13:02:32;100539.44;;;10.93;100.00
18813;BME280;9534;51.140;6.296;2023-04-20T13:06:36;100540.81;;;10.13;100.00
18813;BME280;9534;51.140;6.296;2023-04-20T13:10:39;100540.88;;;9.53;100.00
18813;BME280;9534;51.140;6.296;2023-04-20T13:14:43;100531.94;;;9.79;100.00
18813;BME280;9534;51.140;6.296;2023-04-20T13:18:46;100527.31;;;10.05;100.00
18813;BME280;9534;51.140;6.296;2023-04-20T13:22:50;100533.84;;;10.04;100.00
18813;BME280;9534;51.140;6.296;2023-04-20T13:26:59;100526.19;;;11.47;100.00
18813;BME280;9534;51.140;6.296;2023-04-20T13:31:02;100518.75;;;13.25;100.00
18813;BME280;9534;51.140;6.296;2023-04-20T13:35:05;100513.34;;;14.06;100.00
18813;BME280;9534;51.140;6.296;2023-04-20T13:39:10;100510.69;;;14.64;100.00
18813;BME280;9534;51.140;6.296;2023-04-20T13:43:13;100504.66;;;16.08;100.00
18813;BME280;9534;51.140;6.296;2023-04-20T13:47:17;100513.41;;;14.98;100.00
18813;BME280;9534;51.140;6.296;2023-04-20T13:51:20;100506.28;;;14.10;100.00
18813;BME280;9534;51.140;6.296;2023-04-20T13:55:24;100500.50;;;14.41;100.00
18813;BME280;9534;51.140;6.296;2023-04-20T13:59:28;100482.50;;;15.47;100.00
18813;BME280;9534;51.140;6.296;2023-04-20T14:03:31;100484.44;;;14.61;100.00
18813;BME280;9534;51.140;6.296;2023-04-20T14:07:34;100489.66;;;15.08;100.00
18813;BME280;9534;51.140;6.296;2023-04-20T14:11:38;100477.28;;;14.37;100.00
18813;BME280;9534;51.140;6.296;2023-04-20T14:15:41;100487.59;;;13.31;100.00
18813;BME280;9534;51.140;6.296;2023-04-20T14:19:44;100463.66;;;13.90;100.00
18813;BME280;9534;51.140;6.296;2023-04-20T14:23:48;100472.53;;;13.33;100.00
18813;BME280;9534;51.140;6.296;2023-04-20T14:27:55;100469.22;;;15.44;100.00
18813;BME280;9534;51.140;6.296;2023-04-20T14:31:58;100458.94;;;15.67;100.00
18813;BME280;9534;51.140;6.296;2023-04-20T14:36:01;100454.81;;;15.42;100.00
18813;BME280;9534;51.140;6.296;2023-04-20T14:40:04;100455.41;;;15.72;100.00
18813;BME280;9534;51.140;6.296;2023-04-20T14:44:10;100461.81;;;13.72;100.00
18813;BME280;9534;51.140;6.296;2023-04-20T14:48:13;100456.69;;;12.81;100.00
18813;BME280;9534;51.140;6.296;2023-04-20T14:52:16;100460.72;;;12.61;100.00
18813;BME280;9534;51.140;6.296;2023-04-20T14:56:19;100458.97;;;13.90;100.00
18813;BME280;9534;51.140;6.296;2023-04-20T15:00:23;100456.69;;;15.53;100.00
18813;BME280;9534;51.140;6.296;2023-04-20T15:04:28;100462.34;;;16.51;100.00
18813;BME280;9534;51.140;6.296;2023-04-20T15:08:32;100458.50;;;16.19;100.00
18813;BME280;9534;51.140;6.296;2023-04-20T15:12:35;100460.41;;;13.81;100.00
18813;BME280;9534;51.140;6.296;2023-04-20T15:16:39;100465.63;;;12.77;100.00
18813;BME280;9534;51.140;6.296;2023-04-20T15:20:42;100457.75;;;12.20;100.00
18813;BME280;9534;51.140;6.296;2023-04-20T15:24:45;100450.66;;;12.55;100.00
18813;BME280;9534;51.140;6.296;2023-04-20T15:28:49;100443.00;;;14.10;100.00
18813;BME280;9534;51.140;6.296;2023-04-20T15:32:54;100427.13;;;15.48;100.00
18813;BME280;9534;51.140;6.296;2023-04-20T15:37:05;100418.41;;;16.50;100.00
18813;BME280;9534;51.140;6.296;2023-04-20T15:41:08;100422.19;;;14.60;100.00
18813;BME280;9534;51.140;6.296;2023-04-20T15:45:11;100433.69;;;13.30;100.00
18813;BME280;9534;51.140;6.296;2023-04-20T15:49:16;100422.59;;;12.53;100.00
18813;BME280;9534;51.140;6.296;2023-04-20T15:53:20;100432.94;;;12.33;100.00
18813;BME280;9534;51.140;6.296;2023-04-20T15:57:24;100434.13;;;12.19;100.00
18813;BME280;9534;51.140;6.296;2023-04-20T16:01:27;100449.69;;;12.25;100.00
18813;BME280;9534;51.140;6.296;2023-04-20T16:05:32;100437.38;;;12.10;100.00
18813;BME280;9534;51.140;6.296;2023-04-20T16:09:54;100434.50;;;13.01;100.00
18813;BME280;9534;51.140;6.296;2023-04-20T16:13:57;100438.97;;;13.72;100.00
18813;BME280;9534;51.140;6.296;2023-04-20T16:18:00;100435.63;;;14.45;100.00
18813;BME280;9534;51.140;6.296;2023-04-20T16:22:06;100430.78;;;15.26;100.00
18813;BME280;9534;51.140;6.296;2023-04-20T16:26:10;100439.47;;;14.44;100.00
18813;BME280;9534;51.140;6.296;2023-04-20T16:30:13;100444.66;;;15.70;100.00
18813;BME280;9534;51.140;6.296;2023-04-20T16:34:16;100440.59;;;14.94;100.00
18813;BME280;9534;51.140;6.296;2023-04-20T16:38:21;100438.22;;;14.63;100.00
18813;BME280;9534;51.140;6.296;2023-04-20T16:42:24;100438.38;;;13.81;100.00
18813;BME280;9534;51.140;6.296;2023-04-20T16:46:27;100447.22;;;12.95;100.00
18813;BME280;9534;51.140;6.296;2023-04-20T16:50:30;100444.19;;;14.14;100.00
18813;BME280;9534;51.140;6.296;2023-04-20T16:54:35;100441.31;;;14.09;100.00
18813;BME280;9534;51.140;6.296;2023-04-20T16:58:38;100440.22;;;13.47;100.00
18813;BME280;9534;51.140;6.296;2023-04-20T17:02:41;100445.09;;;12.61;100.00
18813;BME280;9534;51.140;6.296;2023-04-20T17:06:45;100449.09;;;11.99;100.00
18813;BME280;9534;51.140;6.296;2023-04-20T17:10:50;100434.94;;;11.77;100.00
18813;BME280;9534;51.140;6.296;2023-04-20T17:14:56;100447.31;;;13.07;100.00
18813;BME280;9534;51.140;6.296;2023-04-20T17:18:59;100442.88;;;12.88;100.00
18813;BME280;9534;51.140;6.296;2023-04-20T17:23:02;100447.19;;;13.31;100.00
18813;BME280;9534;51.140;6.296;2023-04-20T17:27:07;100441.78;;;13.54;100.00
18813;BME280;9534;51.140;6.296;2023-04-20T17:31:10;100443.00;;;13.29;100.00
18813;BME280;9534;51.140;6.296;2023-04-20T17:35:13;100456.13;;;12.91;100.00
18813;BME280;9534;51.140;6.296;2023-04-20T17:39:16;100458.16;;;12.66;100.00
18813;BME280;9534;51.140;6.296;2023-04-20T17:43:22;100456.59;;;12.52;100.00
18813;BME280;9534;51.140;6.296;2023-04-20T17:47:25;100452.22;;;12.27;100.00
18813;BME280;9534;51.140;6.296;2023-04-20T17:51:29;100455.44;;;11.99;100.00
18813;BME280;9534;51.140;6.296;2023-04-20T17:55:32;100459.69;;;11.95;100.00
18813;BME280;9534;51.140;6.296;2023-04-20T17:59:37;100459.16;;;12.05;100.00
18813;BME280;9534;51.140;6.296;2023-04-20T18:03:42;100466.94;;;11.83;100.00
18813;BME280;9534;51.140;6.296;2023-04-20T18:07:45;100467.34;;;11.49;100.00
18813;BME280;9534;51.140;6.296;2023-04-20T18:11:49;100459.56;;;11.46;100.00
18813;BME280;9534;51.140;6.296;2023-04-20T18:16:12;100464.09;;;11.28;100.00
18813;BME280;9534;51.140;6.296;2023-04-20T18:20:15;100472.97;;;11.23;100.00
18813;BME280;9534;51.140;6.296;2023-04-20T18:24:19;100468.63;;;11.09;100.00
18813;BME280;9534;51.140;6.296;2023-04-20T18:28:23;100468.00;;;11.08;100.00
18813;BME280;9534;51.140;6.296;2023-04-20T18:32:27;100478.16;;;11.01;100.00
18813;BME280;9534;51.140;6.296;2023-04-20T18:36:31;100483.44;;;10.96;100.00
18813;BME280;9534;51.140;6.296;2023-04-20T18:40:34;100496.53;;;10.81;100.00
18813;BME280;9534;51.140;6.296;2023-04-20T18:44:37;100503.78;;;10.23;100.00
18813;BME280;9534;51.140;6.296;2023-04-20T18:48:43;100510.91;;;9.92;100.00
18813;BME280;9534;51.140;6.296;2023-04-20T18:52:46;100513.00;;;9.77;100.00
18813;BME280;9534;51.140;6.296;2023-04-20T18:56:49;100509.00;;;9.67;100.00
18813;BME280;9534;51.140;6.296;2023-04-20T19:00:55;100517.56;;;9.57;100.00
18813;BME280;9534;51.140;6.296;2023-04-20T19:04:59;100521.75;;;9.40;100.00
18813;BME280;9534;51.140;6.296;2023-04-20T19:09:02;100515.38;;;9.20;100.00
18813;BME280;9534;51.140;6.296;2023-04-20T19:13:08;100527.75;;;9.16;100.00
18813;BME280;9534;51.140;6.296;2023-04-20T19:17:11;100530.25;;;9.11;100.00
18813;BME280;9534;51.140;6.296;2023-04-20T19:21:16;100525.38;;;9.07;100.00
18813;BME280;9534;51.140;6.296;2023-04-20T19:25:22;100513.69;;;9.19;100.00
18813;BME280;9534;51.140;6.296;2023-04-20T19:29:25;100515.31;;;9.07;100.00
18813;BME280;9534;51.140;6.296;2023-04-20T19:33:28;100508.41;;;9.11;100.00
18813;BME280;9534;51.140;6.296;2023-04-20T19:37:32;100509.84;;;9.01;100.00
18813;BME280;9534;51.140;6.296;2023-04-20T19:41:35;100507.28;;;8.99;100.00
18813;BME280;9534;51.140;6.296;2023-04-20T19:45:38;100508.97;;;9.00;100.00
18813;BME280;9534;51.140;6.296;2023-04-20T19:49:42;100512.34;;;9.02;100.00
18813;BME280;9534;51.140;6.296;2023-04-20T19:53:46;100504.41;;;9.07;100.00
18813;BME280;9534;51.140;6.296;2023-04-20T19:57:49;100499.34;;;9.04;100.00
18813;BME280;9534;51.140;6.296;2023-04-20T20:01:52;100500.78;;;9.00;100.00
18813;BME280;9534;51.140;6.296;2023-04-20T20:05:55;100497.19;;;8.93;100.00
18813;BME280;9534;51.140;6.296;2023-04-20T20:09:59;100500.56;;;8.95;100.00
18813;BME280;9534;51.140;6.296;2023-04-20T20:14:02;100496.56;;;8.91;100.00
18813;BME280;9534;51.140;6.296;2023-04-20T20:18:05;100488.34;;;8.85;100.00
18813;BME280;9534;51.140;6.296;2023-04-20T20:22:11;100479.94;;;8.86;100.00
18813;BME280;9534;51.140;6.296;2023-04-20T20:26:15;100481.97;;;8.71;100.00
18813;BME280;9534;51.140;6.296;2023-04-20T20:30:18;100488.59;;;8.56;100.00
18813;BME280;9534;51.140;6.296;2023-04-20T20:34:21;100484.75;;;8.44;100.00
18813;BME280;9534;51.140;6.296;2023-04-20T20:38:24;100485.38;;;8.40;100.00
18813;BME280;9534;51.140;6.296;2023-04-20T20:42:32;100493.06;;;8.30;100.00
18813;BME280;9534;51.140;6.296;2023-04-20T20:46:35;100510.56;;;8.21;100.00
18813;BME280;9534;51.140;6.296;2023-04-20T20:50:39;100502.13;;;8.16;100.00
18813;BME280;9534;51.140;6.296;2023-04-20T20:54:42;100515.31;;;8.12;100.00
18813;BME280;9534;51.140;6.296;2023-04-20T20:58:46;100534.72;;;8.03;100.00
18813;BME280;9534;51.140;6.296;2023-04-20T21:02:49;100526.16;;;7.85;100.00
18813;BME280;9534;51.140;6.296;2023-04-20T21:06:53;100549.72;;;7.92;100.00
18813;BME280;9534;51.140;6.296;2023-04-20T21:10:56;100565.47;;;7.76;100.00
18813;BME280;9534;51.140;6.296;2023-04-20T21:15:00;100588.06;;;7.70;100.00
18813;BME280;9534;51.140;6.296;2023-04-20T21:19:03;100577.09;;;7.63;100.00
18813;BME280;9534;51.140;6.296;2023-04-20T21:23:06;100574.94;;;7.59;100.00
18813;BME280;9534;51.140;6.296;2023-04-20T21:27:10;100581.16;;;7.53;100.00
18813;BME280;9534;51.140;6.296;2023-04-20T21:31:14;100581.56;;;7.50;100.00